Time;durP1;ratioP1;P1;durP2;ratioP2;P2;SDS_P1;SDS_P2;PMS_P1;PMS_P2;Temp;Humidity;BMP_temperature;BMP_pressure;BME280_temperature;BME280_humidity;BME280_pressure;Samples;Min_cycle;Max_cycle;Signal;HPM_P1;HPM_P2
2021/04/14 00:00:38;;;;;;;9.97;6.10;;;8.10;75.30;;;;;;5034135;28;20057;-69
2021/04/14 00:03:09;;;;;;;9.30;6.30;;;8.20;75.00;;;;;;5029135;28;20061;-70
2021/04/14 00:05:37;;;;;;;10.83;6.53;;;8.10;74.30;;;;;;5034095;28;20022;-70
2021/04/14 00:08:04;;;;;;;10.23;6.13;;;8.10;75.30;;;;;;5034207;28;20026;-70
2021/04/14 00:10:33;;;;;;;14.07;6.90;;;8.10;75.40;;;;;;5034104;28;20474;-77
2021/04/14 00:13:00;;;;;;;10.87;6.53;;;8.10;75.10;;;;;;5033968;28;20029;-70
2021/04/14 00:15:48;;;;;;;14.53;6.70;;;8.00;75.20;;;;;;5034251;28;20059;-70
2021/04/14 00:18:15;;;;;;;10.27;6.63;;;8.00;75.00;;;;;;5033904;28;20025;-70
2021/04/14 00:20:41;;;;;;;9.63;6.47;;;8.00;75.50;;;;;;5033921;28;20055;-70
2021/04/14 00:23:07;;;;;;;10.50;6.20;;;8.00;75.70;;;;;;5033786;28;20104;-70
2021/04/14 00:25:36;;;;;;;13.00;7.20;;;8.00;75.70;;;;;;5034008;28;20112;-70
2021/04/14 00:28:03;;;;;;;8.80;6.20;;;8.00;75.70;;;;;;5033906;28;20025;-70
2021/04/14 00:30:28;;;;;;;9.57;6.87;;;8.00;76.00;;;;;;5033615;28;20077;-70
2021/04/14 00:32:55;;;;;;;9.13;6.33;;;8.00;75.90;;;;;;5032971;28;20029;-70
2021/04/14 00:35:23;;;;;;;9.80;6.17;;;8.00;75.90;;;;;;5033891;28;20435;-70
2021/04/14 00:37:49;;;;;;;8.03;5.60;;;8.00;75.50;;;;;;5033598;28;20029;-69
2021/04/14 00:40:22;;;;;;;9.67;5.93;;;8.00;75.60;;;;;;5033684;28;20045;-70
2021/04/14 00:42:47;;;;;;;6.75;5.75;;;7.90;76.10;;;;;;5048716;28;20418;-70
2021/04/14 00:45:13;;;;;;;7.53;5.43;;;7.90;76.50;;;;;;5033423;28;20101;-70
2021/04/14 00:47:39;;;;;;;9.23;5.87;;;7.90;76.20;;;;;;5033271;28;20022;-71
2021/04/14 00:50:11;;;;;;;9.17;6.23;;;7.80;76.00;;;;;;5033158;28;20103;-70
2021/04/14 00:52:37;;;;;;;16.42;6.20;;;7.80;76.00;;;;;;5033545;28;20056;-76
2021/04/14 00:55:07;;;;;;;11.20;5.97;;;7.80;77.10;;;;;;5031869;28;20057;-70
2021/04/14 00:57:32;;;;;;;18.53;5.43;;;7.70;77.00;;;;;;5032704;28;20029;-70
2021/04/14 00:59:58;;;;;;;9.00;5.40;;;7.70;77.20;;;;;;5030421;28;20046;-70
2021/04/14 01:02:24;;;;;;;7.47;4.87;;;7.70;77.30;;;;;;5030618;28;20446;-69
2021/04/14 01:04:49;;;;;;;7.93;4.73;;;7.70;77.10;;;;;;5031786;28;20428;-69
2021/04/14 01:07:15;;;;;;;7.13;5.00;;;7.70;76.80;;;;;;5032965;28;20024;-71
2021/04/14 01:09:41;;;;;;;7.13;4.50;;;7.70;76.20;;;;;;5033090;28;20083;-70
2021/04/14 01:12:07;;;;;;;6.77;4.53;;;7.60;76.30;;;;;;5033196;28;20068;-75
2021/04/14 01:14:33;;;;;;;7.53;4.63;;;7.60;76.50;;;;;;5032757;28;20026;-69
2021/04/14 01:16:58;;;;;;;6.73;4.57;;;7.60;76.60;;;;;;5033152;28;20075;-69
2021/04/14 01:19:24;;;;;;;9.57;4.33;;;7.50;76.60;;;;;;5032993;28;20408;-76
2021/04/14 01:21:50;;;;;;;8.13;5.03;;;7.50;76.70;;;;;;5032750;28;20025;-69
2021/04/14 01:24:17;;;;;;;7.33;4.73;;;7.40;76.50;;;;;;5032768;28;20477;-69
2021/04/14 01:26:44;;;;;;;6.87;4.80;;;7.40;76.70;;;;;;5032922;28;20049;-75
2021/04/14 01:29:11;;;;;;;8.60;5.20;;;7.30;76.50;;;;;;5031932;28;20071;-70
2021/04/14 01:31:37;;;;;;;9.60;4.87;;;7.30;75.80;;;;;;5030781;28;20021;-70
2021/04/14 01:34:09;;;;;;;8.37;4.50;;;7.30;76.40;;;;;;5030897;28;20025;-70
2021/04/14 01:36:35;;;;;;;11.90;4.65;;;7.20;77.00;;;;;;5032166;28;20044;-69
2021/04/14 01:39:01;;;;;;;12.20;4.77;;;7.20;76.60;;;;;;5032386;28;20038;-70
2021/04/14 01:41:26;;;;;;;8.50;4.30;;;7.20;76.90;;;;;;5032733;28;20026;-76
2021/04/14 01:43:52;;;;;;;7.20;4.20;;;7.20;76.80;;;;;;5032703;28;20056;-69
2021/04/14 01:46:18;;;;;;;9.23;4.10;;;7.20;76.90;;;;;;5036792;28;20108;-75
2021/04/14 01:48:44;;;;;;;7.47;4.00;;;7.10;76.40;;;;;;5036762;28;20021;-69
2021/04/14 01:51:10;;;;;;;6.97;4.57;;;7.10;77.20;;;;;;5036363;28;20466;-69
2021/04/14 01:53:35;;;;;;;5.27;3.67;;;7.10;77.60;;;;;;5036492;28;20025;-70
2021/04/14 01:56:01;;;;;;;8.53;4.30;;;7.00;77.30;;;;;;5036554;28;20599;-69
2021/04/14 01:58:29;;;;;;;6.23;3.47;;;7.00;77.30;;;;;;5036225;28;20101;-69
2021/04/14 02:00:59;;;;;;;11.77;3.70;;;7.00;77.70;;;;;;5036581;28;20064;-69
2021/04/14 02:03:28;;;;;;;13.60;3.70;;;7.00;76.80;;;;;;5036602;28;20041;-70
2021/04/14 02:05:54;;;;;;;7.37;3.83;;;7.00;76.80;;;;;;5036634;28;20457;-76
2021/04/14 02:08:20;;;;;;;6.30;3.43;;;6.90;77.50;;;;;;5036551;28;20057;-69
2021/04/14 02:10:46;;;;;;;3.87;3.17;;;6.90;77.80;;;;;;5036268;28;20531;-69
2021/04/14 02:13:15;;;;;;;6.63;3.40;;;6.90;77.80;;;;;;5036536;28;20380;-69
2021/04/14 02:15:41;;;;;;;6.97;3.93;;;6.90;78.00;;;;;;5036157;28;20064;-69
2021/04/14 02:18:07;;;;;;;5.47;3.47;;;6.90;77.90;;;;;;5036382;28;20119;-69
2021/04/14 02:20:34;;;;;;;9.20;3.30;;;6.90;77.70;;;;;;5036124;28;20034;-76
2021/04/14 02:23:13;;;;;;;5.50;3.30;;;6.80;78.30;;;;;;5036311;28;20026;-69
2021/04/14 02:25:39;;;;;;;6.70;3.33;;;6.80;77.90;;;;;;5036272;28;20520;-69
2021/04/14 02:28:04;;;;;;;4.27;3.10;;;6.80;77.70;;;;;;5036366;28;20029;-69
2021/04/14 02:30:30;;;;;;;7.80;3.30;;;6.70;77.60;;;;;;5036267;28;20115;-70
2021/04/14 02:32:56;;;;;;;12.77;3.27;;;6.70;77.30;;;;;;5036132;28;20029;-70
2021/04/14 02:35:24;;;;;;;5.00;3.00;;;6.70;77.80;;;;;;5036158;28;20148;-76
2021/04/14 02:37:50;;;;;;;5.23;3.17;;;6.60;77.30;;;;;;5035642;28;20041;-70
2021/04/14 02:40:16;;;;;;;10.53;3.47;;;6.60;77.30;;;;;;5035879;28;20033;-70
2021/04/14 02:42:42;;;;;;;13.33;4.03;;;6.60;77.30;;;;;;5035741;28;20021;-69
2021/04/14 02:45:13;;;;;;;6.03;3.10;;;6.60;77.20;;;;;;5035938;28;20430;-76
2021/04/14 02:47:39;;;;;;;5.33;2.90;;;6.60;77.70;;;;;;5035625;28;20039;-71
2021/04/14 02:50:07;;;;;;;6.30;2.90;;;6.60;77.70;;;;;;5035680;28;20116;-70
2021/04/14 02:52:33;;;;;;;5.23;3.40;;;6.50;77.50;;;;;;5035340;28;20026;-69
2021/04/14 02:54:59;;;;;;;6.73;3.13;;;6.50;77.40;;;;;;5035587;28;20378;-69
2021/04/14 02:57:25;;;;;;;4.43;3.40;;;6.50;77.20;;;;;;5034814;28;20017;-70
2021/04/14 02:59:51;;;;;;;10.17;3.30;;;6.40;77.50;;;;;;5035644;28;20033;-70
2021/04/14 03:02:16;;;;;;;6.83;3.17;;;6.40;77.80;;;;;;5035719;28;20061;-70
2021/04/14 03:04:42;;;;;;;4.53;3.47;;;6.40;78.20;;;;;;5035396;28;20029;-69
2021/04/14 03:07:08;;;;;;;7.07;3.50;;;6.40;77.50;;;;;;5035497;28;20018;-75
2021/04/14 03:09:34;;;;;;;4.60;3.40;;;6.40;77.70;;;;;;5035332;28;20143;-69
2021/04/14 03:12:00;;;;;;;5.93;2.90;;;6.30;77.40;;;;;;5035301;28;20108;-69
2021/04/14 03:14:26;;;;;;;6.47;3.10;;;6.40;76.70;;;;;;5034956;28;20032;-73
2021/04/14 03:16:51;;;;;;;5.83;3.30;;;6.30;76.50;;;;;;5035119;28;20025;-70
2021/04/14 03:19:17;;;;;;;6.40;3.23;;;6.20;76.30;;;;;;5035148;28;20040;-77
2021/04/14 03:21:43;;;;;;;6.33;3.20;;;6.10;76.20;;;;;;5035157;28;20021;-69
2021/04/14 03:24:08;;;;;;;10.43;3.13;;;6.10;77.10;;;;;;5035025;28;20045;-69
2021/04/14 03:26:34;;;;;;;4.53;3.07;;;6.00;76.70;;;;;;5034901;28;20028;-70
2021/04/14 03:29:00;;;;;;;8.93;3.10;;;6.00;77.00;;;;;;5035067;28;20021;-70
2021/04/14 03:31:26;;;;;;;4.10;3.03;;;6.00;77.20;;;;;;5034828;28;20021;-70
2021/04/14 03:33:55;;;;;;;4.50;3.10;;;5.90;76.90;;;;;;5034846;28;20040;-76
2021/04/14 03:36:21;;;;;;;4.73;3.07;;;5.90;76.50;;;;;;5034793;28;20029;-75
2021/04/14 03:38:47;;;;;;;7.20;2.90;;;5.90;76.50;;;;;;5034911;28;20026;-75
2021/04/14 03:41:13;;;;;;;4.67;2.93;;;5.90;76.80;;;;;;5034678;28;20041;-69
2021/04/14 03:43:39;;;;;;;4.20;2.67;;;5.80;76.90;;;;;;5034679;28;20381;-70
2021/04/14 03:46:06;;;;;;;5.87;2.70;;;5.80;76.20;;;;;;5034720;28;20029;-69
2021/04/14 03:48:32;;;;;;;7.13;2.90;;;5.80;75.80;;;;;;5034467;28;20018;-69
2021/04/14 03:50:57;;;;;;;4.00;3.03;;;5.70;75.30;;;;;;5034324;28;20045;-69
2021/04/14 03:53:36;;;;;;;5.30;3.03;;;5.70;75.50;;;;;;5034418;28;20457;-69
2021/04/14 03:56:14;;;;;;;5.83;2.60;;;5.70;75.50;;;;;;5034456;28;20435;-70
2021/04/14 03:58:43;;;;;;;6.43;2.80;;;5.70;75.60;;;;;;5034279;28;20058;-69
2021/04/14 04:01:18;;;;;;;6.27;2.60;;;5.70;76.00;;;;;;5034342;28;20434;-69
2021/04/14 04:03:44;;;;;;;4.37;2.70;;;5.60;75.70;;;;;;5034140;28;20021;-70
2021/04/14 04:06:10;;;;;;;5.80;2.77;;;5.60;75.50;;;;;;5034086;28;20033;-69
2021/04/14 04:08:36;;;;;;;6.20;2.67;;;5.60;75.00;;;;;;5033292;28;20078;-69
2021/04/14 04:11:02;;;;;;;4.73;2.93;;;5.60;75.40;;;;;;5034226;28;20061;-69
2021/04/14 04:13:30;;;;;;;7.63;2.80;;;5.60;74.80;;;;;;5034357;28;20049;-76
2021/04/14 04:15:56;;;;;;;4.07;2.90;;;5.50;74.80;;;;;;5034010;28;20051;-69
2021/04/14 04:18:21;;;;;;;4.37;2.70;;;5.60;74.70;;;;;;5034118;28;20104;-69
2021/04/14 04:20:47;;;;;;;5.27;2.70;;;5.50;74.60;;;;;;5033939;28;20036;-75
2021/04/14 04:23:13;;;;;;;8.90;2.60;;;5.50;74.50;;;;;;5034064;28;20347;-69
2021/04/14 04:25:39;;;;;;;4.83;3.03;;;5.50;75.50;;;;;;5034013;28;20033;-69
2021/04/14 04:28:07;;;;;;;6.10;2.87;;;5.50;75.40;;;;;;5033926;28;20148;-70
2021/04/14 04:30:33;;;;;;;3.63;2.50;;;5.40;75.20;;;;;;5033676;28;20025;-69
2021/04/14 04:33:00;;;;;;;7.97;2.80;;;5.40;75.60;;;;;;5033778;28;20034;-69
2021/04/14 04:35:28;;;;;;;4.23;2.73;;;5.50;76.00;;;;;;5033641;28;20101;-69
2021/04/14 04:37:55;;;;;;;3.37;2.57;;;5.50;76.00;;;;;;5033658;28;20362;-75
2021/04/14 04:40:21;;;;;;;4.40;2.53;;;5.40;75.00;;;;;;5033257;28;20048;-70
2021/04/14 04:42:48;;;;;;;6.20;2.77;;;5.40;74.60;;;;;;5033755;28;20025;-70
2021/04/14 04:45:16;;;;;;;4.57;2.90;;;5.40;75.00;;;;;;5033737;28;20029;-69
2021/04/14 04:47:42;;;;;;;4.30;2.10;;;5.40;76.50;;;;;;5033743;28;20080;-69
2021/04/14 04:50:09;;;;;;;5.77;2.30;;;5.30;75.60;;;;;;5033995;28;20037;-70
2021/04/14 04:52:34;;;;;;;12.03;2.70;;;5.40;76.20;;;;;;5033421;28;20025;-69
2021/04/14 04:55:00;;;;;;;4.87;2.70;;;5.40;76.30;;;;;;5033667;28;20071;-70
2021/04/14 04:57:26;;;;;;;4.13;2.40;;;5.40;76.20;;;;;;5033359;28;20427;-69
2021/04/14 04:59:53;;;;;;;5.60;2.40;;;5.40;75.80;;;;;;5032952;28;20056;-74
2021/04/14 05:02:19;;;;;;;4.03;2.50;;;5.40;76.60;;;;;;5033394;28;20406;-76
2021/04/14 05:04:45;;;;;;;8.70;3.10;;;5.40;76.30;;;;;;5033668;28;20470;-69
2021/04/14 05:07:10;;;;;;;3.53;2.57;;;5.40;76.50;;;;;;5033349;28;20032;-75
2021/04/14 05:09:36;;;;;;;7.57;3.13;;;5.40;76.80;;;;;;5033040;28;20025;-69
2021/04/14 05:12:02;;;;;;;3.47;2.03;;;5.40;76.70;;;;;;5033298;28;20032;-72
2021/04/14 05:14:28;;;;;;;4.40;2.53;;;5.40;76.30;;;;;;5033644;28;20026;-69
2021/04/14 05:16:53;;;;;;;9.33;2.83;;;5.40;76.00;;;;;;5033280;28;20075;-70
2021/04/14 05:19:19;;;;;;;6.50;2.37;;;5.40;76.30;;;;;;5032521;28;20030;-69
2021/04/14 05:21:46;;;;;;;9.43;2.87;;;5.40;76.10;;;;;;5029650;28;20021;-69
2021/04/14 05:24:12;;;;;;;8.50;3.40;;;5.40;76.10;;;;;;5032003;28;20101;-70
2021/04/14 05:26:38;;;;;;;6.17;3.03;;;5.50;76.60;;;;;;5032213;28;20029;-69
2021/04/14 05:29:05;;;;;;;4.50;3.10;;;5.50;76.10;;;;;;5033126;28;20095;-75
2021/04/14 05:31:32;;;;;;;8.27;3.70;;;5.60;75.70;;;;;;5032643;28;20033;-70
2021/04/14 05:33:59;;;;;;;7.50;3.47;;;5.60;76.00;;;;;;5032895;28;20025;-69
2021/04/14 05:36:25;;;;;;;8.13;4.03;;;5.70;75.70;;;;;;5033224;28;20029;-69
2021/04/14 05:38:51;;;;;;;4.53;3.33;;;5.70;75.00;;;;;;5031656;28;20095;-70
2021/04/14 05:41:17;;;;;;;4.30;2.57;;;5.70;75.10;;;;;;5032889;28;20029;-69
2021/04/14 05:43:43;;;;;;;9.37;3.00;;;5.80;74.50;;;;;;5032985;28;20040;-75
2021/04/14 05:46:12;;;;;;;7.27;3.57;;;5.80;74.20;;;;;;5032823;28;20117;-69
2021/04/14 05:48:39;;;;;;;9.23;3.00;;;5.90;73.80;;;;;;5033334;28;20057;-76
2021/04/14 05:51:07;;;;;;;8.27;3.07;;;5.90;73.10;;;;;;5032520;28;20050;-70
2021/04/14 05:53:37;;;;;;;8.20;3.33;;;5.90;72.90;;;;;;5032638;28;20484;-69
2021/04/14 05:56:05;;;;;;;6.60;3.00;;;5.90;73.50;;;;;;5032945;28;20537;-69
2021/04/14 05:58:31;;;;;;;5.73;3.00;;;5.90;73.40;;;;;;5032779;28;20113;-69
2021/04/14 06:00:57;;;;;;;9.77;3.27;;;6.00;73.20;;;;;;5032629;28;20487;-69
2021/04/14 06:03:23;;;;;;;9.10;3.67;;;6.00;73.80;;;;;;5032893;28;20022;-75
2021/04/14 06:05:56;;;;;;;7.30;4.10;;;6.00;73.20;;;;;;5032129;28;20049;-69
2021/04/14 06:08:22;;;;;;;5.17;3.37;;;6.00;73.40;;;;;;5030800;28;20044;-71
2021/04/14 06:10:48;;;;;;;10.50;4.00;;;6.10;73.70;;;;;;5014271;28;20478;-69
2021/04/14 06:13:14;;;;;;;7.40;3.63;;;6.10;74.20;;;;;;5012401;28;20030;-76
2021/04/14 06:15:40;;;;;;;7.37;3.63;;;6.20;74.20;;;;;;5012529;28;20034;-69
2021/04/14 06:18:06;;;;;;;5.63;3.20;;;6.30;74.10;;;;;;5020030;28;20064;-69
2021/04/14 06:20:34;;;;;;;4.93;3.20;;;6.40;74.00;;;;;;5030729;28;20041;-70
2021/04/14 06:23:02;;;;;;;8.90;3.43;;;6.40;73.70;;;;;;5029399;28;20068;-72
2021/04/14 06:25:33;;;;;;;7.67;3.60;;;6.50;73.50;;;;;;5029300;28;20096;-71
2021/04/14 06:28:05;;;;;;;7.13;3.63;;;6.60;73.10;;;;;;5030033;28;20096;-70
2021/04/14 06:30:32;;;;;;;12.33;3.90;;;6.60;73.30;;;;;;5030950;28;20037;-69
2021/04/14 06:32:59;;;;;;;9.87;3.77;;;6.70;74.60;;;;;;5034885;28;20481;-69
2021/04/14 06:35:25;;;;;;;5.83;3.80;;;6.70;74.60;;;;;;5033696;28;20033;-70
2021/04/14 06:37:51;;;;;;;5.73;3.70;;;6.80;74.30;;;;;;5033903;28;20032;-68
2021/04/14 06:43:15;;;;;;;6.90;3.80;;;7.00;74.10;;;;;;5030653;28;20087;-69
2021/04/14 06:45:44;;;;;;;7.57;3.33;;;7.00;73.30;;;;;;5031666;28;20033;-69
2021/04/14 06:48:32;;;;;;;7.97;4.10;;;7.10;71.70;;;;;;5032548;28;20547;-69
2021/04/14 06:51:00;;;;;;;5.70;3.03;;;7.20;71.50;;;;;;5034012;28;20132;-69
2021/04/14 06:53:47;;;;;;;4.80;3.10;;;7.30;71.50;;;;;;5035000;28;20086;-70
2021/04/14 06:56:18;;;;;;;4.67;2.70;;;7.30;71.70;;;;;;5034645;28;20049;-69
2021/04/14 06:59:06;;;;;;;8.77;2.43;;;7.50;70.60;;;;;;5034658;28;20100;-70
2021/04/14 07:01:35;;;;;;;12.57;2.67;;;7.50;69.60;;;;;;5037321;28;20040;-76
2021/04/14 07:04:25;;;;;;;3.47;2.17;;;7.50;69.80;;;;;;5035088;28;20053;-69
2021/04/14 07:06:53;;;;;;;6.73;2.47;;;7.60;69.20;;;;;;5034873;28;20033;-68
2021/04/14 07:09:40;;;;;;;3.60;2.33;;;7.70;68.30;;;;;;5035339;28;20386;-69
2021/04/14 07:12:16;;;;;;;5.63;1.80;;;7.70;67.20;;;;;;5035399;28;20022;-75
2021/04/14 07:14:42;;;;;;;10.80;2.30;;;7.70;66.70;;;;;;5035113;28;20425;-74
2021/04/14 07:17:16;;;;;;;4.73;2.20;;;7.80;67.70;;;;;;5034976;28;20072;-75
2021/04/14 07:20:11;;;;;;;5.20;1.60;;;7.90;67.50;;;;;;5034865;28;20044;-69
2021/04/14 07:23:02;;;;;;;5.50;1.80;;;8.00;66.70;;;;;;5035099;28;20021;-68
2021/04/14 07:25:30;;;;;;;2.93;1.53;;;8.10;66.00;;;;;;5034939;28;20032;-69
2021/04/14 07:28:30;;;;;;;2.87;1.30;;;8.20;65.90;;;;;;5035083;28;20017;-68
2021/04/14 07:31:03;;;;;;;2.60;1.10;;;8.30;64.50;;;;;;5032038;28;20025;-68
2021/04/14 07:33:38;;;;;;;3.17;1.30;;;8.30;64.10;;;;;;5031899;28;20038;-68
2021/04/14 07:36:24;;;;;;;2.57;1.33;;;8.40;63.70;;;;;;5032339;28;20072;-68
2021/04/14 07:39:12;;;;;;;2.90;1.20;;;8.50;61.20;;;;;;5034434;28;20032;-74
2021/04/14 07:41:59;;;;;;;3.60;1.60;;;8.60;61.40;;;;;;5034157;28;20032;-68
2021/04/14 07:44:31;;;;;;;4.60;2.33;;;;;;;;;;5032823;28;20025;-70
2021/04/14 07:46:57;;;;;;;4.18;2.15;;;8.70;60.60;;;;;;5033498;28;20022;-69
2021/04/14 07:49:26;;;;;;;3.57;2.67;;;8.80;60.90;;;;;;5032636;28;20099;-69
2021/04/14 07:51:52;;;;;;;6.10;2.33;;;8.80;62.80;;;;;;5033820;28;20139;-69
2021/04/14 07:54:20;;;;;;;4.90;2.70;;;8.90;63.20;;;;;;5032578;28;20469;-73
2021/04/14 07:56:49;;;;;;;4.40;2.50;;;9.00;63.50;;;;;;5031234;28;20390;-70
2021/04/14 07:59:34;;;;;;;5.07;2.63;;;9.10;64.20;;;;;;5032063;28;20105;-69
2021/04/14 08:02:01;;;;;;;5.03;2.50;;;9.10;64.40;;;;;;5034389;28;20033;-69
2021/04/14 08:04:37;;;;;;;4.70;2.57;;;9.20;64.20;;;;;;5034521;28;20024;-69
2021/04/14 08:07:23;;;;;;;6.23;2.60;;;9.30;63.20;;;;;;5034206;28;20152;-69
2021/04/14 08:09:56;;;;;;;4.70;2.53;;;9.40;63.20;;;;;;5034084;28;20059;-68
2021/04/14 08:12:50;;;;;;;4.38;2.60;;;9.50;62.90;;;;;;5034205;28;20366;-69
2021/04/14 08:15:16;;;;;;;4.27;2.20;;;9.60;62.40;;;;;;5033170;28;20044;-69
2021/04/14 08:17:43;;;;;;;3.00;2.13;;;9.70;60.80;;;;;;5032127;28;20025;-69
2021/04/14 08:20:23;;;;;;;3.13;2.00;;;9.70;60.50;;;;;;5033358;28;20512;-75
2021/04/14 08:22:49;;;;;;;2.83;1.73;;;9.80;59.60;;;;;;5033771;28;20391;-70
2021/04/14 08:25:14;;;;;;;2.77;1.57;;;9.90;57.70;;;;;;5033774;28;20112;-69
2021/04/14 08:27:46;;;;;;;4.03;2.30;;;10.00;59.30;;;;;;5033947;28;20064;-71
2021/04/14 08:30:16;;;;;;;3.65;2.25;;;10.10;58.30;;;;;;5033816;28;20017;-71
2021/04/14 08:32:54;;;;;;;5.40;2.10;;;10.20;57.60;;;;;;5034138;28;20025;-76
2021/04/14 08:35:43;;;;;;;3.17;1.93;;;10.30;57.90;;;;;;5033847;28;20034;-71
2021/04/14 08:38:13;;;;;;;4.00;1.80;;;10.30;57.20;;;;;;5033467;28;20033;-71
2021/04/14 08:40:54;;;;;;;4.17;1.70;;;10.50;57.60;;;;;;5030996;28;20037;-72
2021/04/14 08:43:22;;;;;;;5.38;1.90;;;10.50;55.30;;;;;;5022073;28;20108;-72
2021/04/14 08:45:47;;;;;;;2.43;2.00;;;10.60;56.90;;;;;;5021631;28;20104;-72
2021/04/14 08:48:21;;;;;;;3.67;1.90;;;10.70;56.40;;;;;;5027362;28;20109;-71
2021/04/14 08:50:56;;;;;;;4.68;2.10;;;10.80;56.30;;;;;;5033018;28;20053;-72
2021/04/14 08:53:31;;;;;;;3.22;2.03;;;10.90;53.90;;;;;;5026556;28;20044;-71
2021/04/14 08:55:57;;;;;;;2.10;1.67;;;10.90;52.00;;;;;;5021446;28;20026;-71
2021/04/14 08:58:23;;;;;;;3.87;1.87;;;10.90;53.20;;;;;;5029555;28;20029;-76
2021/04/14 09:00:50;;;;;;;2.45;1.60;;;11.00;53.70;;;;;;5031278;28;20064;-72
2021/04/14 09:03:23;;;;;;;3.00;1.73;;;11.10;51.90;;;;;;5032006;28;20192;-72
2021/04/14 09:05:49;;;;;;;3.15;1.70;;;11.20;51.50;;;;;;5033358;28;20025;-72
2021/04/14 09:08:19;;;;;;;4.78;1.90;;;11.30;51.90;;;;;;5033184;28;20025;-72
2021/04/14 09:10:57;;;;;;;6.38;1.95;;;11.40;51.40;;;;;;5033360;28;20049;-71
2021/04/14 09:13:34;;;;;;;3.03;1.50;;;11.50;51.10;;;;;;5033297;28;20033;-71
2021/04/14 09:16:02;;;;;;;3.65;1.80;;;11.50;50.70;;;;;;5033614;28;20018;-72
2021/04/14 09:18:34;;;;;;;4.88;1.80;;;11.60;49.70;;;;;;5033278;28;20506;-79
2021/04/14 09:21:18;;;;;;;2.72;1.70;;;11.70;50.00;;;;;;5033230;28;20030;-73
2021/04/14 09:24:02;;;;;;;2.78;1.50;;;11.70;49.30;;;;;;5033019;28;20108;-72
2021/04/14 09:26:35;;;;;;;7.85;1.80;;;11.80;47.20;;;;;;5033153;28;20429;-71
2021/04/14 09:29:02;;;;;;;2.13;1.60;;;11.80;47.70;;;;;;5033098;28;20105;-71
2021/04/14 09:31:40;;;;;;;1.98;1.67;;;11.90;46.20;;;;;;5031811;28;20443;-74
2021/04/14 09:34:18;;;;;;;2.22;1.60;;;12.00;47.60;;;;;;5033134;28;20383;-71
2021/04/14 09:36:49;;;;;;;1.90;1.67;;;12.00;46.80;;;;;;5033057;28;20021;-71
2021/04/14 09:39:59;;;;;;;2.55;1.52;;;12.10;46.20;;;;;;5032719;28;20029;-71
2021/04/14 09:42:24;;;;;;;2.17;1.27;;;12.20;44.30;;;;;;5030538;28;20071;-71
2021/04/14 09:44:55;;;;;;;3.50;1.20;;;12.20;43.70;;;;;;5032845;28;20029;-71
2021/04/14 09:47:30;;;;;;;2.63;1.30;;;12.30;43.70;;;;;;5033138;28;20045;-78
2021/04/14 09:49:58;;;;;;;1.60;0.90;;;12.40;43.60;;;;;;5032796;28;20092;-71
2021/04/14 09:52:44;;;;;;;1.80;1.10;;;12.50;42.20;;;;;;5032946;28;20029;-71
2021/04/14 09:55:23;;;;;;;7.43;1.10;;;12.60;38.20;;;;;;5032951;28;20029;-72
2021/04/14 09:57:51;;;;;;;1.45;1.10;;;12.70;39.30;;;;;;5032892;28;20025;-71
2021/04/14 10:00:26;;;;;;;1.92;1.27;;;12.70;41.10;;;;;;5032462;28;20033;-72
2021/04/14 10:02:57;;;;;;;3.70;0.98;;;12.80;42.90;;;;;;5031376;28;20025;-71
2021/04/14 10:05:28;;;;;;;1.65;1.08;;;12.90;39.80;;;;;;5032522;28;20033;-72
2021/04/14 10:07:59;;;;;;;1.45;0.90;;;13.00;40.80;;;;;;5033649;28;20076;-71
2021/04/14 10:10:25;;;;;;;3.15;1.40;;;13.20;42.20;;;;;;5034282;28;21045;-71
2021/04/14 10:12:53;;;;;;;2.78;1.15;;;13.30;42.90;;;;;;5035087;28;20104;-71
2021/04/14 10:15:36;;;;;;;2.22;1.10;;;13.50;37.40;;;;;;5036670;28;20040;-71
2021/04/14 10:18:04;;;;;;;2.95;1.00;;;13.50;40.10;;;;;;5036528;28;20432;-77
2021/04/14 10:20:32;;;;;;;1.75;1.20;;;13.50;39.70;;;;;;5035340;28;20116;-72
2021/04/14 10:22:59;;;;;;;2.45;1.50;;;13.40;38.20;;;;;;5035342;28;20112;-79
2021/04/14 10:25:26;;;;;;;3.00;1.23;;;13.40;39.20;;;;;;5035594;28;20105;-71
2021/04/14 10:28:14;;;;;;;2.20;1.20;;;13.30;42.90;;;;;;5036133;28;20053;-72
2021/04/14 10:30:44;;;;;;;3.47;1.30;;;13.40;42.60;;;;;;5035033;28;20029;-72
2021/04/14 10:33:13;;;;;;;2.05;1.25;;;13.40;41.40;;;;;;5033289;28;20486;-73
2021/04/14 10:35:39;;;;;;;3.30;1.38;;;13.40;40.70;;;;;;5033143;28;20047;-72
2021/04/14 10:38:05;;;;;;;3.20;1.45;;;13.40;42.80;;;;;;5035703;28;20025;-79
2021/04/14 10:40:39;;;;;;;4.68;1.30;;;13.20;42.70;;;;;;5035681;28;20060;-71
2021/04/14 10:43:19;;;;;;;1.55;1.30;;;13.20;40.80;;;;;;5035878;28;20477;-72
2021/04/14 10:46:11;;;;;;;2.05;1.50;;;13.00;41.90;;;;;;5035936;28;20064;-71
2021/04/14 10:48:43;;;;;;;4.10;1.33;;;12.90;41.00;;;;;;5035757;28;20104;-72
2021/04/14 10:51:44;;;;;;;2.22;1.17;;;12.70;41.20;;;;;;5035564;28;20108;-71
2021/04/14 10:54:12;;;;;;;1.90;1.40;;;12.50;39.30;;;;;;5024067;28;20034;-71
2021/04/14 10:56:39;;;;;;;2.58;1.45;;;12.30;39.30;;;;;;5035605;28;20482;-72
2021/04/14 10:59:11;;;;;;;2.72;1.27;;;12.20;39.40;;;;;;5035320;28;20113;-71
2021/04/14 11:01:45;;;;;;;2.47;1.40;;;12.10;39.60;;;;;;5035396;28;20033;-72
2021/04/14 11:04:32;;;;;;;2.78;1.27;;;12.00;39.40;;;;;;5035301;28;20497;-71
2021/04/14 11:07:09;;;;;;;2.90;1.30;;;11.90;42.30;;;;;;5035338;28;20036;-72
2021/04/14 11:09:38;;;;;;;3.65;1.67;;;11.90;39.70;;;;;;5035172;28;20038;-71
2021/04/14 11:12:10;;;;;;;2.22;1.50;;;11.70;40.00;;;;;;5034858;28;20029;-78
2021/04/14 11:14:39;;;;;;;2.40;1.50;;;11.70;42.40;;;;;;5035009;28;20478;-71
2021/04/14 11:17:07;;;;;;;2.20;1.40;;;11.70;42.80;;;;;;5034800;28;20091;-71
2021/04/14 11:19:33;;;;;;;2.25;1.25;;;11.80;42.70;;;;;;5035023;28;20091;-72
2021/04/14 11:22:08;;;;;;;6.57;1.20;;;11.80;42.00;;;;;;5035347;28;20039;-72
2021/04/14 11:24:52;;;;;;;2.10;1.50;;;11.90;40.50;;;;;;5034486;28;20014;-72
2021/04/14 11:27:33;;;;;;;3.20;1.63;;;11.90;39.90;;;;;;5033147;28;20108;-72
2021/04/14 11:30:08;;;;;;;2.45;1.10;;;11.90;38.40;;;;;;5033533;28;20112;-72
2021/04/14 11:32:34;;;;;;;1.83;1.13;;;11.90;40.00;;;;;;5035054;28;20108;-71
2021/04/14 11:35:11;;;;;;;3.63;1.05;;;11.80;41.10;;;;;;5034748;28;20100;-72
2021/04/14 11:37:37;;;;;;;2.38;1.10;;;11.80;39.70;;;;;;5034856;28;20031;-75
2021/04/14 11:40:02;;;;;;;6.43;1.05;;;11.90;39.70;;;;;;5034505;28;20124;-78
2021/04/14 11:43:00;;;;;;;1.65;1.02;;;12.00;41.30;;;;;;5034851;28;20104;-73
2021/04/14 11:45:31;;;;;;;5.20;1.08;;;12.20;42.30;;;;;;5034532;28;20112;-72
2021/04/14 11:48:27;;;;;;;3.22;1.10;;;12.30;39.30;;;;;;5034655;28;20080;-72
2021/04/14 11:50:53;;;;;;;1.52;1.15;;;12.40;40.60;;;;;;5034353;28;20049;-73
2021/04/14 11:53:31;;;;;;;1.75;1.20;;;12.50;39.70;;;;;;5034564;28;20543;-73
2021/04/14 11:56:00;;;;;;;1.45;0.80;;;12.50;39.70;;;;;;5034642;28;20104;-72
2021/04/14 11:58:36;;;;;;;1.13;0.77;;;12.40;39.90;;;;;;5034333;28;20105;-72
2021/04/14 12:01:03;;;;;;;0.98;0.80;;;12.40;38.90;;;;;;5034227;28;20033;-72
2021/04/14 12:03:34;;;;;;;2.47;0.93;;;12.40;39.00;;;;;;5034237;28;20021;-72
2021/04/14 12:06:00;;;;;;;1.83;0.95;;;12.30;39.10;;;;;;5034404;28;20059;-71
2021/04/14 12:08:29;;;;;;;3.13;0.70;;;12.30;37.60;;;;;;5034108;28;20025;-71
2021/04/14 12:10:56;;;;;;;2.42;0.90;;;12.20;36.20;;;;;;5034268;28;20022;-72
2021/04/14 12:13:23;;;;;;;1.45;0.90;;;12.20;37.60;;;;;;5034105;28;20029;-72
2021/04/14 12:15:50;;;;;;;3.47;1.30;;;12.20;39.10;;;;;;5033884;28;20076;-72
2021/04/14 12:18:17;;;;;;;4.07;1.10;;;12.10;39.30;;;;;;5033342;28;20442;-72
2021/04/14 12:20:43;;;;;;;2.10;1.00;;;12.10;40.60;;;;;;5032826;28;20048;-72
2021/04/14 12:23:09;;;;;;;1.98;0.70;;;12.10;39.10;;;;;;5033892;28;20025;-72
2021/04/14 12:25:35;;;;;;;1.75;0.68;;;12.00;39.00;;;;;;5033954;28;20025;-73
2021/04/14 12:28:00;;;;;;;3.90;1.15;;;12.00;40.40;;;;;;5033371;28;20386;-74
2021/04/14 12:30:27;;;;;;;3.92;1.10;;;11.90;37.50;;;;;;5033200;28;20087;-72
2021/04/14 12:32:54;;;;;;;2.17;0.98;;;11.90;39.50;;;;;;5033464;28;20032;-72
2021/04/14 12:35:21;;;;;;;1.42;0.90;;;11.80;39.90;;;;;;5033705;28;20030;-72
2021/04/14 12:37:47;;;;;;;2.00;1.02;;;11.70;40.90;;;;;;5033842;28;20114;-71
2021/04/14 12:40:14;;;;;;;3.85;1.50;;;11.70;38.40;;;;;;5033672;28;20509;-71
2021/04/14 12:42:40;;;;;;;2.17;1.00;;;11.60;38.60;;;;;;5033865;28;20482;-72
2021/04/14 12:45:29;;;;;;;5.32;1.50;;;11.50;40.10;;;;;;5033421;28;20033;-75
2021/04/14 12:47:55;;;;;;;2.92;1.15;;;11.50;39.00;;;;;;5033988;28;20056;-72
2021/04/14 12:50:20;;;;;;;2.00;1.20;;;11.50;40.40;;;;;;5033267;28;20045;-72
2021/04/14 12:52:51;;;;;;;1.80;1.00;;;11.50;40.70;;;;;;5033371;28;20351;-72
2021/04/14 12:55:25;;;;;;;3.20;1.30;;;11.50;39.60;;;;;;5033543;28;20123;-74
2021/04/14 12:57:54;;;;;;;8.60;2.08;;;11.50;39.50;;;;;;5033299;28;20024;-72
2021/04/14 13:00:22;;;;;;;1.15;0.65;;;11.60;41.70;;;;;;5033208;28;20068;-73
2021/04/14 13:03:00;;;;;;;3.95;1.10;;;11.70;42.40;;;;;;5033113;28;20025;-72
2021/04/14 13:05:29;;;;;;;1.67;0.90;;;11.80;41.60;;;;;;5032962;28;20100;-71
2021/04/14 13:08:21;;;;;;;2.80;0.98;;;11.90;43.60;;;;;;5033179;28;20068;-72
2021/04/14 13:11:02;;;;;;;2.50;0.90;;;12.10;42.80;;;;;;5031505;28;20021;-75